Time;durP1;ratioP1;P1;durP2;ratioP2;P2;SDS_P1;SDS_P2;PMS_P1;PMS_P2;Temp;Humidity;BMP_temperature;BMP_pressure;BME280_temperature;BME280_humidity;BME280_pressure;Samples;Min_cycle;Max_cycle;Signal;HPM_P1;HPM_P2
2022/07/12 00:03:04;;;;;;;12.25;9.35;;;;;;;15.83;100.00;102438.97;10448780;28;20037;-65
2022/07/12 00:08:06;;;;;;;10.25;8.90;;;;;;;15.85;100.00;102430.41;10449631;28;20044;-65
2022/07/12 00:13:06;;;;;;;10.15;8.93;;;;;;;15.84;100.00;102426.78;10449247;28;20040;-66
2022/07/12 00:18:07;;;;;;;10.48;8.05;;;;;;;15.83;100.00;102425.09;10464328;28;20069;-65
2022/07/12 00:23:07;;;;;;;14.52;10.75;;;;;;;15.82;100.00;102434.53;10490641;28;20040;-65
2022/07/12 00:28:08;;;;;;;14.98;11.88;;;;;;;15.74;100.00;102430.22;10490105;28;20521;-65
2022/07/12 00:33:08;;;;;;;15.23;11.52;;;;;;;15.75;100.00;102428.31;10488168;28;20044;-63
2022/07/12 00:38:09;;;;;;;12.98;10.35;;;;;;;15.76;100.00;102424.44;10488515;28;20094;-65
2022/07/12 00:43:09;;;;;;;15.15;11.48;;;;;;;15.72;100.00;102423.25;10470435;28;20037;-65
2022/07/12 00:48:10;;;;;;;12.90;9.50;;;;;;;15.76;100.00;102420.81;10446169;28;20068;-65
2022/07/12 00:53:10;;;;;;;11.00;8.75;;;;;;;15.74;100.00;102426.63;10445502;28;20090;-65
2022/07/12 00:58:11;;;;;;;15.63;11.13;;;;;;;15.69;100.00;102426.50;10445947;28;20096;-66
2022/07/12 01:03:11;;;;;;;13.50;10.32;;;;;;;15.66;100.00;102429.78;10447721;28;20048;-65
2022/07/12 01:08:12;;;;;;;14.70;10.82;;;;;;;15.63;100.00;102425.56;10446989;28;20044;-63
2022/07/12 01:13:13;;;;;;;12.35;9.98;;;;;;;15.56;100.00;102429.59;10457989;28;20036;-65
2022/07/12 01:18:14;;;;;;;12.27;9.73;;;;;;;15.57;100.00;102443.22;10473803;28;20052;-65
2022/07/12 01:23:15;;;;;;;12.85;10.25;;;;;;;15.52;100.00;102438.44;10444334;28;20044;-66
2022/07/12 01:28:15;;;;;;;13.68;9.55;;;;;;;15.53;100.00;102434.53;10426893;28;20588;-65
2022/07/12 01:33:16;;;;;;;13.40;9.38;;;;;;;15.54;100.00;102444.56;10444344;28;20029;-65
2022/07/12 01:38:17;;;;;;;13.57;9.60;;;;;;;15.54;100.00;102455.69;10444349;28;20029;-65
2022/07/12 01:43:17;;;;;;;14.43;10.65;;;;;;;15.53;100.00;102453.97;10448334;28;20495;-65
2022/07/12 01:48:18;;;;;;;13.70;11.50;;;;;;;15.51;100.00;102456.16;10446726;28;20056;-66
2022/07/12 01:53:19;;;;;;;15.35;11.13;;;;;;;15.50;100.00;102460.03;10443067;28;20037;-65
2022/07/12 01:58:19;;;;;;;12.75;10.30;;;;;;;15.49;100.00;102457.50;10427195;28;20096;-66
2022/07/12 02:03:20;;;;;;;14.85;11.85;;;;;;;15.45;100.00;102462.72;10445045;28;20558;-64
2022/07/12 02:08:20;;;;;;;13.43;10.75;;;;;;;15.13;100.00;102418.81;10444109;28;20055;-65
2022/07/12 02:13:21;;;;;;;14.55;10.85;;;;;;;15.39;100.00;102458.16;10446443;28;20104;-65
2022/07/12 02:18:21;;;;;;;12.70;10.27;;;;;;;15.36;100.00;102457.78;10447744;28;20064;-65
2022/07/12 02:23:22;;;;;;;12.40;10.65;;;;;;;15.32;100.00;102465.78;10447602;28;20100;-65
2022/07/12 02:28:22;;;;;;;14.02;11.77;;;;;;;15.27;100.00;102454.56;10490810;28;20072;-65
2022/07/12 02:33:23;;;;;;;11.75;9.85;;;;;;;15.21;100.00;102459.19;10493366;28;20051;-63
2022/07/12 02:38:24;;;;;;;13.10;10.38;;;;;;;15.17;100.00;102451.59;10485070;28;22365;-66
2022/07/12 02:43:25;;;;;;;13.25;10.30;;;;;;;15.11;100.00;102439.56;10454380;28;20037;-65
2022/07/12 02:48:26;;;;;;;13.80;10.70;;;;;;;15.00;100.00;102437.69;10453154;28;20037;-66
2022/07/12 02:53:26;;;;;;;13.38;10.35;;;;;;;14.92;100.00;102436.13;10450036;28;20037;-66
2022/07/12 02:58:27;;;;;;;13.45;9.13;;;;;;;14.84;100.00;102436.50;10452058;28;20053;-66
2022/07/12 03:03:27;;;;;;;12.48;9.30;;;;;;;14.79;100.00;102448.34;10448237;28;20109;-66
2022/07/12 03:08:28;;;;;;;11.18;9.02;;;;;;;14.72;100.00;102448.47;10448528;28;20508;-65
2022/07/12 03:13:28;;;;;;;12.48;9.52;;;;;;;14.65;100.00;102438.59;10434898;28;20072;-65
2022/07/12 03:18:29;;;;;;;11.48;9.32;;;;;;;14.59;100.00;102445.13;10451260;28;20060;-67
2022/07/12 03:23:29;;;;;;;12.45;8.75;;;;;;;14.60;100.00;102450.41;10490836;28;20063;-65
2022/07/12 03:28:30;;;;;;;11.45;8.63;;;;;;;14.62;100.00;102447.41;10448559;28;20056;-66
2022/07/12 03:33:30;;;;;;;13.95;10.43;;;;;;;14.66;100.00;102445.84;10449905;28;20048;-66
2022/07/12 03:38:31;;;;;;;11.63;9.43;;;;;;;14.71;100.00;102444.00;10450958;28;20087;-65
2022/07/12 03:43:31;;;;;;;14.23;11.30;;;;;;;14.74;100.00;102442.69;10450668;28;20045;-65
2022/07/12 03:48:32;;;;;;;10.63;9.02;;;;;;;14.77;100.00;102450.50;10448405;28;20037;-66
2022/07/12 03:53:32;;;;;;;11.88;9.05;;;;;;;14.78;100.00;102445.78;10449791;28;20033;-65
2022/07/12 03:58:33;;;;;;;10.88;8.38;;;;;;;14.83;100.00;102440.38;10437348;28;20494;-66
2022/07/12 04:03:33;;;;;;;9.82;7.30;;;;;;;14.88;100.00;102443.25;10473024;28;20037;-66
2022/07/12 04:08:34;;;;;;;7.60;6.32;;;;;;;14.94;100.00;102445.03;10492274;28;20079;-65
2022/07/12 04:13:34;;;;;;;8.30;6.63;;;;;;;15.00;100.00;102457.09;10493043;28;20051;-65
2022/07/12 04:18:35;;;;;;;9.80;6.78;;;;;;;15.04;100.00;102463.84;10491073;28;20048;-65
2022/07/12 04:23:35;;;;;;;10.73;7.45;;;;;;;15.05;100.00;102459.97;10491462;28;20037;-65
2022/07/12 04:28:36;;;;;;;10.48;7.82;;;;;;;15.04;100.00;102456.34;10487915;28;20075;-66
2022/07/12 04:33:36;;;;;;;10.32;7.88;;;;;;;15.08;100.00;102465.03;10490254;28;20036;-66
2022/07/12 04:38:36;;;;;;;9.50;7.80;;;;;;;15.09;100.00;102463.94;10491149;28;20037;-65
2022/07/12 04:43:37;;;;;;;11.07;8.27;;;;;;;15.13;100.00;102454.88;10489863;28;20040;-65
2022/07/12 04:48:38;;;;;;;10.23;8.27;;;;;;;15.21;100.00;102455.56;10489481;28;20040;-66
2022/07/12 04:53:38;;;;;;;10.10;7.68;;;;;;;15.20;100.00;102437.25;10489807;28;20060;-65
2022/07/12 04:58:38;;;;;;;12.90;9.70;;;;;;;15.32;100.00;102454.69;10486491;28;20040;-66
2022/07/12 05:03:39;;;;;;;13.75;10.50;;;;;;;15.37;100.00;102453.94;10459304;28;20512;-62
2022/07/12 05:08:40;;;;;;;14.55;11.27;;;;;;;15.41;100.00;102466.22;10446151;28;20041;-65
2022/07/12 05:13:40;;;;;;;15.18;10.90;;;;;;;15.49;100.00;102452.78;10447090;28;20053;-66
2022/07/12 05:18:41;;;;;;;18.75;12.07;;;;;;;15.60;100.00;102447.44;10448358;28;20063;-65
2022/07/12 05:23:42;;;;;;;15.55;11.98;;;;;;;15.67;100.00;102451.75;10447427;28;20104;-66
2022/07/12 05:28:44;;;;;;;17.77;12.73;;;;;;;15.66;100.00;102463.09;10428819;28;20120;-66
2022/07/12 05:33:44;;;;;;;20.92;14.48;;;;;;;15.65;100.00;102466.97;10446475;28;20717;-66
2022/07/12 05:38:45;;;;;;;18.17;13.35;;;;;;;15.70;100.00;102475.38;10446620;28;20063;-65
2022/07/12 05:43:45;;;;;;;17.92;12.75;;;;;;;15.84;100.00;102481.50;10448430;28;20397;-65
2022/07/12 05:48:45;;;;;;;19.17;13.20;;;;;;;15.94;100.00;102481.69;10445124;28;20079;-66
2022/07/12 05:53:46;;;;;;;16.20;12.10;;;;;;;16.02;100.00;102488.72;10446264;28;20056;-66
2022/07/12 05:58:46;;;;;;;17.63;13.35;;;;;;;16.14;100.00;102490.34;10456213;28;20049;-66
2022/07/12 06:03:47;;;;;;;17.85;13.32;;;;;;;16.33;100.00;102479.81;10471354;28;20107;-63
2022/07/12 06:08:47;;;;;;;14.98;11.70;;;;;;;16.47;100.00;102462.78;10441370;28;25340;-66
2022/07/12 06:13:49;;;;;;;13.00;11.07;;;;;;;16.81;100.00;102493.34;10452760;28;20120;-67
2022/07/12 06:18:49;;;;;;;16.65;12.90;;;;;;;16.84;100.00;102493.63;10451884;28;20040;-67
2022/07/12 06:23:50;;;;;;;15.45;11.25;;;;;;;17.05;100.00;102507.81;10453565;28;20044;-67
2022/07/12 06:28:50;;;;;;;15.25;11.80;;;;;;;17.17;100.00;102510.50;10453501;28;20037;-68
2022/07/12 06:33:51;;;;;;;20.08;12.88;;;;;;;17.28;100.00;102495.59;10479037;28;20048;-67
2022/07/12 06:38:51;;;;;;;14.38;11.10;;;;;;;17.45;100.00;102496.34;10493478;28;20486;-67
2022/07/12 06:43:52;;;;;;;13.32;11.10;;;;;;;17.55;100.00;102495.63;10495247;28;20036;-67
2022/07/12 06:48:52;;;;;;;14.48;10.63;;;;;;;17.72;100.00;102501.09;10495472;28;20472;-67
2022/07/12 06:53:53;;;;;;;12.73;10.68;;;;;;;17.84;100.00;102484.22;10495331;28;20547;-63
2022/07/12 06:58:53;;;;;;;11.80;10.43;;;;;;;17.88;100.00;102489.03;10494071;28;21073;-68
2022/07/12 07:03:54;;;;;;;10.50;9.35;;;;;;;18.09;100.00;102492.00;10494623;28;20535;-67
2022/07/12 07:08:54;;;;;;;11.57;9.15;;;;;;;18.35;100.00;102482.75;10496336;28;20392;-67
2022/07/12 07:13:55;;;;;;;10.10;8.95;;;;;;;18.62;100.00;102498.50;10495213;28;20051;-67
2022/07/12 07:18:56;;;;;;;12.35;10.60;;;;;;;18.44;100.00;102501.72;10493880;28;20447;-67
2022/07/12 07:23:56;;;;;;;9.70;8.70;;;;;;;18.73;100.00;102500.25;10494039;28;20055;-67
2022/07/12 07:34:15;;;;;;;10.18;7.75;;;;;;;19.25;100.00;102487.41;10491984;28;20041;-67
2022/07/12 07:39:16;;;;;;;9.00;7.55;;;;;;;19.43;100.00;102491.66;10494944;28;20041;-67
2022/07/12 07:44:16;;;;;;;9.80;8.50;;;;;;;19.20;100.00;102425.97;10493361;28;20029;-67
2022/07/12 07:49:17;;;;;;;8.10;6.57;;;;;;;19.80;100.00;102479.44;10490888;28;20090;-67
2022/07/12 07:54:17;;;;;;;9.88;6.55;;;;;;;19.95;100.00;102487.88;10477105;28;20041;-67
2022/07/12 07:59:17;;;;;;;7.03;5.90;;;;;;;20.09;100.00;102481.72;10450868;28;20040;-68
2022/07/12 08:04:18;;;;;;;8.40;6.05;;;;;;;20.21;100.00;102429.13;10450968;28;20029;-67
2022/07/12 08:09:19;;;;;;;8.38;6.55;;;;;;;20.69;100.00;102485.59;10484653;28;20041;-67
2022/07/12 08:14:19;;;;;;;7.40;5.93;;;;;;;20.84;100.00;102493.09;10490088;28;20169;-67
2022/07/12 08:19:20;;;;;;;6.57;5.88;;;;;;;21.04;100.00;102492.16;10491470;28;20036;-66
2022/07/12 08:24:21;;;;;;;6.40;5.70;;;;;;;20.91;100.00;102476.00;10490870;28;20036;-67
2022/07/12 08:29:21;;;;;;;6.22;5.18;;;;;;;21.00;100.00;102474.28;10492463;28;20066;-68
2022/07/12 08:34:21;;;;;;;8.20;5.45;;;;;;;21.38;100.00;102462.63;10490165;28;20036;-67
2022/07/12 08:39:22;;;;;;;5.10;4.60;;;;;;;21.91;100.00;102437.59;10450574;28;20045;-67
2022/07/12 08:44:22;;;;;;;6.00;4.05;;;;;;;22.35;100.00;102471.16;10448486;28;20048;-67
2022/07/12 08:49:23;;;;;;;5.13;3.72;;;;;;;22.64;100.00;102473.09;10447640;28;20029;-67
2022/07/12 08:54:24;;;;;;;5.03;3.88;;;;;;;22.74;100.00;102464.56;10449407;28;20032;-67
2022/07/12 08:59:24;;;;;;;6.07;4.57;;;;;;;22.69;100.00;102464.59;10447819;28;20075;-68
2022/07/12 09:04:27;;;;;;;7.13;3.75;;;;;;;22.65;100.00;102451.47;10447775;28;20052;-66
2022/07/12 09:09:31;;;;;;;3.83;3.33;;;;;;;22.84;100.00;102457.13;10447783;28;20120;-68
2022/07/12 09:14:32;;;;;;;5.63;4.25;;;;;;;23.16;100.00;102448.06;10446822;28;20044;-68
2022/07/12 09:19:33;;;;;;;5.68;4.05;;;;;;;23.28;100.00;102453.25;10446766;28;20041;-67
2022/07/12 09:24:33;;;;;;;4.00;3.28;;;;;;;23.66;100.00;102441.97;10447985;28;20051;-68
2022/07/12 09:29:49;;;;;;;4.85;3.28;;;;;;;24.11;100.00;102433.94;10448483;28;20033;-68
2022/07/12 09:40:14;;;;;;;4.07;3.42;;;;;;;24.07;100.00;102442.16;10447793;28;20037;-68
2022/07/12 09:45:15;;;;;;;4.82;3.80;;;;;;;23.95;100.00;102445.44;10446467;28;20033;-68
2022/07/12 09:50:15;;;;;;;3.42;2.88;;;;;;;24.08;100.00;102448.63;10447514;28;20033;-65
2022/07/12 09:55:16;;;;;;;5.57;4.03;;;;;;;23.71;100.00;102427.81;10430012;28;20040;-68
2022/07/12 10:00:17;;;;;;;4.15;3.38;;;;;;;23.71;100.00;102433.44;10441608;28;20125;-67
2022/07/12 10:05:17;;;;;;;4.22;3.58;;;;;;;23.99;100.00;102430.78;10489324;28;20051;-67
2022/07/12 10:10:17;;;;;;;3.67;2.97;;;;;;;24.44;100.00;102440.34;10470219;28;20025;-67
2022/07/12 10:15:19;;;;;;;4.38;2.70;;;;;;;24.75;100.00;102437.78;10488519;28;20045;-64
2022/07/12 10:20:23;;;;;;;3.60;2.88;;;;;;;24.97;100.00;102441.84;10481150;28;20037;-65
2022/07/12 10:25:28;;;;;;;3.47;3.10;;;;;;;25.58;100.00;102437.66;10445738;28;20121;-65
2022/07/12 10:30:29;;;;;;;3.67;2.40;;;;;;;25.80;96.32;102421.91;10447179;28;20033;-65
2022/07/12 10:35:30;;;;;;;4.60;3.20;;;;;;;25.83;95.18;102424.06;10447202;28;20045;-68
2022/07/12 10:40:33;;;;;;;4.63;4.00;;;;;;;25.71;96.73;102426.63;10444874;28;20037;-66
2022/07/12 10:45:38;;;;;;;3.63;3.17;;;;;;;25.40;99.96;102424.56;10466268;28;20037;-68
2022/07/12 10:50:43;;;;;;;3.85;3.20;;;;;;;25.69;97.77;102407.19;10495124;28;20040;-68
2022/07/12 10:56:07;;;;;;;3.22;2.45;;;;;;;26.15;98.72;102410.88;10496718;28;20047;-68
2022/07/12 11:01:27;;;;;;;4.97;2.78;;;;;;;26.13;93.71;102387.78;10493283;28;20033;-67
2022/07/12 11:06:27;;;;;;;3.70;1.65;;;;;;;26.73;93.78;102395.69;10472176;28;20052;-69
2022/07/12 11:11:32;;;;;;;1.60;1.40;;;;;;;26.77;87.80;102359.13;10480467;28;20029;-68
2022/07/12 11:16:33;;;;;;;3.38;1.15;;;;;;;26.86;85.74;102376.91;10476352;28;20044;-68
2022/07/12 11:21:33;;;;;;;1.30;1.02;;;;;;;27.05;86.08;102384.25;10484066;28;20037;-68
2022/07/12 11:26:35;;;;;;;1.67;1.30;;;;;;;27.49;87.78;102371.84;10449960;28;20045;-68
2022/07/12 11:31:35;;;;;;;1.08;0.90;;;;;;;27.40;83.66;102373.00;10432681;28;20063;-67
2022/07/12 11:36:36;;;;;;;2.15;1.17;;;;;;;27.50;82.28;102373.50;10452274;28;20090;-67
2022/07/12 11:41:36;;;;;;;1.38;1.00;;;;;;;27.76;81.25;102364.13;10434032;28;20044;-68
2022/07/12 11:46:37;;;;;;;1.25;0.77;;;;;;;27.93;82.73;102375.44;10452631;28;20032;-67
2022/07/12 11:51:37;;;;;;;1.98;1.38;;;;;;;27.77;83.98;102365.78;10435081;28;20098;-67
2022/07/12 11:56:38;;;;;;;2.20;1.25;;;;;;;27.50;84.34;102361.34;10482421;28;20047;-68
2022/07/12 12:01:38;;;;;;;2.17;1.00;;;;;;;27.65;82.34;102362.81;10492751;28;20048;-68
2022/07/12 12:06:39;;;;;;;1.95;1.20;;;;;;;27.65;83.86;102362.81;10474647;28;20033;-67
2022/07/12 12:11:39;;;;;;;2.28;0.70;;;;;;;27.65;81.33;102351.50;10458211;28;20131;-65
2022/07/12 12:16:40;;;;;;;3.42;0.90;;;;;;;27.84;78.94;102354.78;10473810;28;20048;-68
2022/07/12 12:21:40;;;;;;;1.27;0.82;;;;;;;28.09;82.12;102353.09;10488924;28;20293;-65
2022/07/12 12:26:41;;;;;;;1.73;0.70;;;;;;;27.97;80.08;102350.97;10451071;28;20048;-69
2022/07/12 12:31:41;;;;;;;0.55;0.52;;;;;;;28.03;82.05;102364.91;10450541;28;20041;-68
2022/07/12 12:36:42;;;;;;;0.73;0.68;;;;;;;28.30;85.23;102361.66;10448639;28;20036;-67
2022/07/12 12:41:42;;;;;;;0.88;0.50;;;;;;;29.56;77.06;102330.59;10447282;28;20037;-68
2022/07/12 12:46:45;;;;;;;1.95;0.70;;;;;;;30.57;74.69;102315.00;10449462;28;20044;-66
2022/07/12 12:51:53;;;;;;;3.90;0.70;;;;;;;30.60;73.01;102319.16;10459990;28;20415;-64
2022/07/12 12:56:54;;;;;;;1.40;0.47;;;;;;;30.41;72.50;102327.44;10487046;28;20064;-66
2022/07/12 13:01:54;;;;;;;0.77;0.50;;;;;;;30.77;69.63;102310.34;10466807;28;20039;-66
2022/07/12 13:06:55;;;;;;;0.77;0.70;;;;;;;30.77;67.86;102301.00;10464068;28;20087;-66
2022/07/12 13:11:56;;;;;;;0.85;0.40;;;;;;;30.69;66.46;102299.94;10454348;28;20046;-66
2022/07/12 13:16:56;;;;;;;1.35;0.50;;;;;;;30.55;68.41;102311.69;10444728;28;20161;-65
2022/07/12 13:21:57;;;;;;;0.50;0.35;;;;;;;30.88;64.53;102298.50;10449528;28;20041;-66
2022/07/12 13:26:57;;;;;;;1.83;0.60;;;;;;;31.65;60.90;102286.06;10476185;28;20040;-66
2022/07/12 13:31:58;;;;;;;1.30;0.55;;;;;;;32.19;61.98;102296.88;10489366;28;20032;-67
2022/07/12 13:36:58;;;;;;;1.25;0.80;;;;;;;32.73;61.13;102298.97;10485930;28;20052;-66
2022/07/12 13:41:59;;;;;;;0.85;0.40;;;;;;;31.81;60.02;102286.09;10451252;28;20033;-66
2022/07/12 13:46:59;;;;;;;0.50;0.50;;;;;;;31.04;59.52;102281.50;10449222;28;20063;-61
2022/07/12 13:52:01;;;;;;;0.98;0.40;;;;;;;30.54;60.98;102275.09;10448535;28;21304;-65
2022/07/12 13:57:01;;;;;;;0.82;0.60;;;;;;;30.68;63.49;102289.75;10460085;28;20048;-66
2022/07/12 14:02:03;;;;;;;1.30;0.57;;;;;;;30.64;63.27;102283.13;10488306;28;20043;-66
2022/07/12 14:07:03;;;;;;;1.00;0.60;;;;;;;30.15;64.00;102278.28;10486449;28;20037;-65
2022/07/12 14:12:04;;;;;;;2.08;0.52;;;;;;;30.00;65.44;102281.03;10488218;28;20032;-65
2022/07/12 14:17:05;;;;;;;0.40;0.40;;;;;;;29.29;61.61;102263.97;10488560;28;20153;-65
2022/07/12 14:22:05;;;;;;;0.57;0.40;;;;;;;29.10;63.96;102275.78;10496132;28;20041;-66
2022/07/12 14:27:06;;;;;;;2.15;0.40;;;;;;;28.87;62.23;102261.13;10466502;28;20058;-64
2022/07/12 14:32:06;;;;;;;3.60;0.60;;;;;;;28.57;62.57;102257.56;10454260;28;20029;-65
2022/07/12 14:37:07;;;;;;;0.63;0.47;;;;;;;28.20;61.88;102256.44;10452598;28;20083;-65
2022/07/12 14:42:07;;;;;;;1.42;0.55;;;;;;;27.82;64.67;102265.72;10454485;28;20065;-66
2022/07/12 14:47:08;;;;;;;0.80;0.60;;;;;;;27.63;65.62;102263.31;10451481;28;20041;-66
2022/07/12 14:52:08;;;;;;;0.68;0.45;;;;;;;27.71;66.53;102256.78;10454943;28;20049;-68
2022/07/12 14:57:09;;;;;;;0.50;0.40;;;;;;;27.91;63.90;102230.59;10453476;28;20048;-69
2022/07/12 15:02:09;;;;;;;0.80;0.52;;;;;;;27.91;67.76;102250.41;10452263;28;20052;-68
2022/07/12 15:07:10;;;;;;;5.32;0.60;;;;;;;27.92;65.07;102243.56;10451108;28;20041;-69
2022/07/12 15:12:10;;;;;;;3.00;0.90;;;;;;;27.95;67.13;102242.91;10450834;28;20056;-67
2022/07/12 15:17:11;;;;;;;2.03;0.60;;;;;;;28.00;69.71;102255.22;10452233;28;20463;-68
2022/07/12 15:22:12;;;;;;;2.72;0.70;;;;;;;27.56;67.63;102241.19;10453046;28;20065;-68
2022/07/12 15:27:12;;;;;;;1.15;0.52;;;;;;;27.40;68.53;102232.44;10424458;28;20044;-68
2022/07/12 15:32:13;;;;;;;3.83;0.80;;;;;;;27.35;71.23;102253.25;10464779;28;20392;-68
2022/07/12 15:37:13;;;;;;;1.45;0.45;;;;;;;27.32;71.58;102245.41;10467626;28;20051;-68
2022/07/12 15:42:14;;;;;;;1.05;0.50;;;;;;;27.48;69.52;102223.09;10472345;28;20055;-68
2022/07/12 15:47:15;;;;;;;2.97;0.80;;;;;;;28.00;68.83;102224.06;10470422;28;20060;-68
2022/07/12 15:57:37;;;;;;;8.50;2.10;;;;;;;27.88;70.06;102225.59;10469507;28;20057;-69
2022/07/12 16:02:38;;;;;;;1.73;0.50;;;;;;;27.61;73.32;102237.34;10467902;28;20034;-69
2022/07/12 16:07:38;;;;;;;3.63;0.50;;;;;;;27.46;69.11;102216.13;10470944;28;20036;-68
2022/07/12 16:12:39;;;;;;;1.75;0.50;;;;;;;27.47;69.90;102210.13;10461612;28;20534;-67
2022/07/12 16:17:39;;;;;;;2.88;0.60;;;;;;;28.14;70.41;102211.31;10472063;28;20037;-67
2022/07/12 16:22:40;;;;;;;1.45;0.50;;;;;;;28.59;68.50;102198.53;10468843;28;20079;-68
2022/07/12 16:27:40;;;;;;;1.35;0.80;;;;;;;28.37;69.15;102203.31;10467295;28;20041;-69
2022/07/12 16:32:41;;;;;;;4.75;1.17;;;;;;;27.86;69.45;102185.50;10468276;28;20079;-68
2022/07/12 16:37:41;;;;;;;0.57;0.50;;;;;;;27.27;67.71;102179.75;10468941;28;20033;-69
2022/07/12 16:42:42;;;;;;;1.02;0.50;;;;;;;26.75;72.78;102194.78;10482744;28;20040;-68
2022/07/12 16:47:42;;;;;;;3.40;0.80;;;;;;;26.32;74.53;102221.78;10477798;28;20092;-64
2022/07/12 16:52:43;;;;;;;0.82;0.60;;;;;;;25.95;76.26;102217.53;10467952;28;20048;-65
2022/07/12 16:57:43;;;;;;;1.75;0.90;;;;;;;25.60;81.52;102239.09;10468793;28;20056;-65
2022/07/12 17:02:44;;;;;;;3.03;1.00;;;;;;;25.42;80.45;102227.72;10452364;28;20041;-65
2022/07/12 17:07:44;;;;;;;3.08;0.90;;;;;;;25.22;80.43;102211.34;10467227;28;20762;-65
2022/07/12 17:12:45;;;;;;;1.25;0.88;;;;;;;25.21;83.27;102237.88;10451062;28;20032;-67
2022/07/12 17:17:45;;;;;;;2.13;0.90;;;;;;;25.17;84.50;102221.56;10448629;28;20033;-67
2022/07/12 17:22:46;;;;;;;1.08;0.80;;;;;;;25.12;87.50;102240.63;10447885;28;20096;-68
2022/07/12 17:27:46;;;;;;;2.15;0.90;;;;;;;25.00;84.38;102231.91;10447569;28;20048;-67
2022/07/12 17:32:47;;;;;;;0.90;0.80;;;;;;;24.94;83.03;102209.47;10445834;28;20060;-68
2022/07/12 17:37:50;;;;;;;2.65;0.90;;;;;;;24.75;86.27;102229.38;10444905;28;20461;-67
2022/07/12 17:42:51;;;;;;;3.47;1.05;;;;;;;24.64;86.92;102236.41;10448506;28;20036;-67
2022/07/12 17:47:53;;;;;;;3.70;0.80;;;;;;;24.50;89.89;102232.81;10448578;28;20041;-68
2022/07/12 17:52:54;;;;;;;2.05;1.45;;;;;;;24.46;89.21;102234.56;10447450;28;20048;-67
2022/07/12 18:03:15;;;;;;;2.40;0.60;;;;;;;24.52;87.92;102222.06;10454188;28;20033;-67
2022/07/12 18:08:16;;;;;;;1.55;0.80;;;;;;;24.27;91.24;102215.81;10455690;28;20123;-67
2022/07/12 18:18:36;;;;;;;2.25;1.05;;;;;;;24.03;88.63;102210.44;10452662;28;20389;-67
2022/07/12 18:23:36;;;;;;;4.60;1.00;;;;;;;23.98;94.31;102227.44;10464372;28;20044;-67
2022/07/12 18:28:36;;;;;;;3.38;1.52;;;;;;;23.80;94.66;102231.16;10472502;28;20036;-68
2022/07/12 18:33:38;;;;;;;1.90;0.88;;;;;;;23.49;91.38;102187.56;10493958;28;20480;-68
2022/07/12 18:38:39;;;;;;;3.28;0.80;;;;;;;23.64;93.63;102224.97;10482528;28;20045;-67
2022/07/12 18:43:39;;;;;;;2.03;0.77;;;;;;;23.54;94.86;102221.22;10468459;28;20041;-68
2022/07/12 18:48:40;;;;;;;1.67;0.90;;;;;;;23.43;98.39;102214.13;10453686;28;20037;-68
2022/07/12 18:53:40;;;;;;;1.10;0.82;;;;;;;22.99;100.00;102176.09;10467733;28;20029;-68
2022/07/12 18:58:41;;;;;;;2.00;1.45;;;;;;;23.00;100.00;102203.03;10467300;28;20064;-64
2022/07/12 19:03:41;;;;;;;2.97;0.80;;;;;;;22.82;100.00;102181.44;10453209;28;21001;-68
2022/07/12 19:08:42;;;;;;;0.95;0.70;;;;;;;22.64;100.00;102186.78;10452161;28;20453;-67
2022/07/12 19:13:42;;;;;;;3.78;0.82;;;;;;;22.47;100.00;102180.84;10456075;28;20119;-68
2022/07/12 19:18:42;;;;;;;1.83;0.77;;;;;;;22.27;100.00;102182.84;10461718;28;20041;-68
2022/07/12 19:23:43;;;;;;;2.35;1.00;;;;;;;22.11;100.00;102178.53;10448678;28;20052;-68
2022/07/12 19:28:43;;;;;;;3.53;1.20;;;;;;;21.94;100.00;102167.84;10446906;28;20063;-68
2022/07/12 19:33:44;;;;;;;1.45;1.10;;;;;;;21.80;100.00;102178.94;10445738;28;20025;-67
2022/07/12 19:38:44;;;;;;;2.05;1.35;;;;;;;21.68;100.00;102182.16;10461085;28;20496;-68
2022/07/12 19:43:45;;;;;;;1.88;1.55;;;;;;;21.58;100.00;102185.09;10448723;28;20052;-68
2022/07/12 19:48:45;;;;;;;1.25;1.08;;;;;;;21.48;100.00;102183.22;10459401;28;20033;-67
2022/07/12 19:53:46;;;;;;;1.40;0.93;;;;;;;21.42;100.00;102183.56;10451373;28;20036;-68
2022/07/12 19:58:47;;;;;;;1.60;0.98;;;;;;;21.31;100.00;102177.19;10450119;28;20086;-66
2022/07/12 20:03:47;;;;;;;2.33;1.38;;;;;;;21.23;100.00;102180.63;10454057;28;20044;-67
2022/07/12 20:08:48;;;;;;;2.70;1.55;;;;;;;21.17;100.00;102177.91;10451355;28;20067;-67
2022/07/12 20:13:48;;;;;;;3.10;1.15;;;;;;;21.15;100.00;102168.13;10449014;28;20033;-68
2022/07/12 20:18:49;;;;;;;6.75;1.70;;;;;;;21.09;100.00;102161.75;10446152;28;20124;-67
2022/07/12 20:23:50;;;;;;;3.85;2.08;;;;;;;21.07;100.00;102166.78;10446822;28;20037;-67
2022/07/12 20:28:50;;;;;;;7.70;3.70;;;;;;;21.01;100.00;102170.78;10450581;28;20044;-68
2022/07/12 20:39:10;;;;;;;7.22;2.92;;;;;;;20.93;100.00;102168.59;10449236;28;20061;-68
2022/07/12 20:44:11;;;;;;;5.53;2.40;;;;;;;20.87;100.00;102164.19;10447291;28;20108;-67
2022/07/12 20:49:12;;;;;;;5.85;2.72;;;;;;;20.81;100.00;102168.97;10445055;28;20095;-67
2022/07/12 20:54:13;;;;;;;3.58;2.58;;;;;;;20.74;100.00;102174.91;10466151;28;20037;-67
2022/07/12 20:59:14;;;;;;;2.92;2.30;;;;;;;20.67;100.00;102177.22;10447655;28;20382;-68
2022/07/12 21:04:15;;;;;;;5.60;2.90;;;;;;;20.63;100.00;102173.34;10445627;28;20103;-67
2022/07/12 21:09:15;;;;;;;3.08;2.33;;;;;;;20.58;100.00;102164.97;10445855;28;20129;-68
2022/07/12 21:14:16;;;;;;;5.18;2.90;;;;;;;20.53;100.00;102165.81;10446163;28;20053;-67
2022/07/12 21:19:16;;;;;;;4.38;2.90;;;;;;;20.47;100.00;102168.94;10460325;28;20041;-67
2022/07/12 21:24:18;;;;;;;3.75;2.22;;;;;;;20.40;100.00;102190.78;10460631;28;20033;-67
2022/07/12 21:29:19;;;;;;;2.65;2.25;;;;;;;20.35;100.00;102178.50;10442030;28;20041;-67
2022/07/12 21:34:19;;;;;;;2.80;2.15;;;;;;;20.32;100.00;102173.50;10476691;28;20110;-67
2022/07/12 21:39:20;;;;;;;2.80;2.15;;;;;;;20.28;100.00;102172.41;10484788;28;20032;-67
2022/07/12 21:44:20;;;;;;;2.33;2.00;;;;;;;20.25;100.00;102147.81;10485904;28;20079;-67
2022/07/12 21:49:21;;;;;;;2.97;2.05;;;;;;;20.22;100.00;102156.78;10484260;28;20036;-67
2022/07/12 21:54:21;;;;;;;5.70;2.22;;;;;;;20.18;100.00;102138.06;10426776;28;20037;-67
2022/07/12 21:59:22;;;;;;;2.88;1.83;;;;;;;20.12;100.00;102145.66;10445260;28;20493;-67
2022/07/12 22:04:22;;;;;;;4.72;2.30;;;;;;;20.06;100.00;102135.63;10444188;28;20072;-67
2022/07/12 22:09:23;;;;;;;3.75;2.40;;;;;;;19.96;100.00;102139.28;10445161;28;20033;-67
2022/07/12 22:14:23;;;;;;;3.95;2.30;;;;;;;19.85;100.00;102118.97;10450782;28;20056;-68
2022/07/12 22:19:24;;;;;;;2.28;1.88;;;;;;;19.83;100.00;102114.78;10459855;28;20044;-67
2022/07/12 22:24:25;;;;;;;2.78;2.53;;;;;;;19.78;100.00;102112.00;10443497;28;20108;-68
2022/07/12 22:29:25;;;;;;;3.75;2.42;;;;;;;19.75;100.00;102107.81;10443863;28;20448;-67
2022/07/12 22:34:26;;;;;;;4.03;2.45;;;;;;;19.56;100.00;102076.88;10461447;28;20033;-67
2022/07/12 22:39:26;;;;;;;7.05;3.10;;;;;;;19.70;100.00;102093.84;10444342;28;20036;-67
2022/07/12 22:44:26;;;;;;;3.75;2.40;;;;;;;19.72;100.00;102102.78;10451181;28;20129;-66
2022/07/12 22:49:27;;;;;;;3.60;2.35;;;;;;;19.67;100.00;102095.25;10452826;28;20044;-68
2022/07/12 22:54:27;;;;;;;4.75;2.63;;;;;;;19.68;100.00;102073.75;10452411;28;20090;-67
2022/07/12 22:59:28;;;;;;;5.35;3.00;;;;;;;19.62;100.00;102086.91;10451042;28;20033;-66
2022/07/12 23:04:28;;;;;;;4.45;2.80;;;;;;;19.52;100.00;102084.16;10454636;28;20048;-67
2022/07/12 23:09:29;;;;;;;4.50;2.80;;;;;;;19.52;100.00;102087.78;10451051;28;20029;-67
2022/07/12 23:14:29;;;;;;;2.35;2.15;;;;;;;19.48;100.00;102078.28;10451660;28;20048;-67
2022/07/12 23:19:30;;;;;;;2.40;2.20;;;;;;;19.44;100.00;102076.38;10463660;28;20060;-67